createdAt,value
2023-05-19T00:01:00.318Z,99880.44
2023-05-19T00:03:27.169Z,99886.41
2023-05-19T00:05:54.102Z,99872.44
2023-05-19T00:08:24.641Z,99875.16
2023-05-19T00:10:59.188Z,99872.94
2023-05-19T00:13:26.044Z,99872.50
2023-05-19T00:15:53.075Z,99878.47
2023-05-19T00:18:20.646Z,99867.22
2023-05-19T00:20:47.126Z,99869.16
2023-05-19T00:23:13.646Z,99871.22
2023-05-19T00:25:40.415Z,99862.56
2023-05-19T00:28:06.913Z,99863.53
2023-05-19T00:30:33.644Z,99865.44
2023-05-19T00:33:02.992Z,99859.19
2023-05-19T00:35:29.600Z,99864.97
2023-05-19T00:37:57.213Z,99858.84
2023-05-19T00:40:24.560Z,99860.63
2023-05-19T00:42:51.110Z,99862.31
2023-05-19T00:45:17.740Z,99862.78
2023-05-19T00:47:44.384Z,99855.44
2023-05-19T00:50:11.037Z,99855.09
2023-05-19T00:52:37.758Z,99861.41
2023-05-19T00:55:05.180Z,99858.47
2023-05-19T00:57:31.685Z,99858.94
2023-05-19T01:00:01.476Z,99858.72
2023-05-19T01:02:29.829Z,99856.97
2023-05-19T01:04:59.785Z,99857.69
2023-05-19T01:07:27.304Z,99856.69
2023-05-19T01:09:54.129Z,99859.31
2023-05-19T01:12:20.714Z,99855.50
2023-05-19T01:14:47.721Z,99863.81
2023-05-19T01:17:42.366Z,99867.31
2023-05-19T01:20:33.908Z,99863.63
2023-05-19T01:23:18.590Z,99858.88
2023-05-19T01:26:03.455Z,99861.53
2023-05-19T01:28:39.055Z,99855.19
2023-05-19T01:31:07.667Z,99852.91
2023-05-19T01:33:35.894Z,99856.47
2023-05-19T01:36:04.065Z,99858.16
2023-05-19T01:38:33.532Z,99863.25
2023-05-19T01:41:01.381Z,99858.16
2023-05-19T01:43:29.244Z,99855.44
2023-05-19T01:45:58.781Z,99860.63
2023-05-19T01:48:27.184Z,99859.81
2023-05-19T01:50:53.719Z,99855.66
2023-05-19T01:53:20.328Z,99853.69
2023-05-19T01:55:50.788Z,99859.97
2023-05-19T01:58:43.908Z,99853.94
2023-05-19T02:01:32.161Z,99859.88
2023-05-19T02:04:09.346Z,99862.28
2023-05-19T02:07:25.297Z,99868.19
2023-05-19T02:10:10.781Z,99857.56
2023-05-19T02:12:40.946Z,99860.63
2023-05-19T02:15:12.366Z,99861.00
2023-05-19T02:17:41.617Z,99850.63
2023-05-19T02:20:12.049Z,99846.44
2023-05-19T02:22:38.639Z,99860.41
2023-05-19T02:25:05.595Z,99852.47
2023-05-19T02:27:32.136Z,99852.47
2023-05-19T02:29:58.692Z,99844.47
2023-05-19T02:32:25.337Z,99845.41
2023-05-19T02:34:53.329Z,99849.00
2023-05-19T02:37:23.755Z,99839.38
2023-05-19T02:39:50.386Z,99835.75
2023-05-19T02:42:19.777Z,99843.63
2023-05-19T02:44:46.584Z,99842.81
2023-05-19T02:47:13.553Z,99841.03
2023-05-19T02:49:40.454Z,99837.53
2023-05-19T02:52:10.101Z,99830.59
2023-05-19T02:54:36.603Z,99842.03
2023-05-19T02:57:03.382Z,99843.97
2023-05-19T02:59:29.904Z,99838.59
2023-05-19T03:01:59.934Z,99835.94
2023-05-19T03:04:26.593Z,99840.13
2023-05-19T03:06:54.170Z,99840.97
2023-05-19T03:09:20.837Z,99838.63
2023-05-19T03:11:47.458Z,99837.88
2023-05-19T03:14:14.018Z,99836.53
2023-05-19T03:16:42.160Z,99838.41
2023-05-19T03:19:09.534Z,99828.06
2023-05-19T03:21:36.724Z,99826.50
2023-05-19T03:24:03.435Z,99830.16
2023-05-19T03:26:30.038Z,99826.66
2023-05-19T03:28:56.561Z,99825.84
2023-05-19T03:31:23.069Z,99827.72
2023-05-19T03:33:49.611Z,99825.22
2023-05-19T03:36:16.091Z,99826.09
2023-05-19T03:38:42.625Z,99823.47
2023-05-19T03:41:09.130Z,99831.22
2023-05-19T03:43:35.699Z,99830.41
2023-05-19T03:46:02.329Z,99835.91
2023-05-19T03:48:28.998Z,99837.66
2023-05-19T03:50:55.656Z,99838.28
2023-05-19T03:53:22.274Z,99846.94
2023-05-19T03:55:52.141Z,99849.31
2023-05-19T03:58:18.892Z,99845.41
2023-05-19T04:00:45.376Z,99845.47
2023-05-19T04:03:12.040Z,99841.53
2023-05-19T04:05:38.739Z,99841.00
2023-05-19T04:08:05.609Z,99832.34
2023-05-19T04:10:32.407Z,99844.75
2023-05-19T04:12:59.160Z,99847.38
2023-05-19T04:15:25.989Z,99838.59
2023-05-19T04:17:52.607Z,99840.50
2023-05-19T04:20:19.211Z,99845.00
2023-05-19T04:22:45.689Z,99845.03
2023-05-19T04:25:12.296Z,99840.72
2023-05-19T04:27:42.366Z,99835.44
2023-05-19T04:30:09.409Z,99840.78
2023-05-19T04:32:37.460Z,99836.19
2023-05-19T04:35:04.796Z,99831.53
2023-05-19T04:37:31.545Z,99836.84
2023-05-19T04:39:58.180Z,99833.25
2023-05-19T04:42:28.969Z,99828.09
2023-05-19T04:44:55.554Z,99830.13
2023-05-19T04:47:22.161Z,99836.41
2023-05-19T04:49:48.793Z,99834.53
2023-05-19T04:52:16.039Z,99835.31
2023-05-19T04:54:42.634Z,99833.50
2023-05-19T04:57:10.467Z,99831.63
2023-05-19T04:59:37.034Z,99838.72
2023-05-19T05:02:04.361Z,99833.44
2023-05-19T05:04:32.088Z,99836.09
2023-05-19T05:06:58.600Z,99836.88
2023-05-19T05:09:25.300Z,99836.91
2023-05-19T05:11:52.038Z,99843.94
2023-05-19T05:14:18.944Z,99851.78
2023-05-19T05:16:46.466Z,99843.81
2023-05-19T05:19:13.419Z,99842.84
2023-05-19T05:21:41.489Z,99842.81
2023-05-19T05:24:09.270Z,99850.84
2023-05-19T05:26:36.147Z,99850.63
2023-05-19T05:29:03.815Z,99848.78
2023-05-19T05:31:30.416Z,99843.47
2023-05-19T05:33:57.143Z,99849.53
2023-05-19T05:36:23.761Z,99849.53
2023-05-19T05:38:53.465Z,99851.56
2023-05-19T05:41:21.960Z,99844.75
2023-05-19T05:43:48.532Z,99839.50
2023-05-19T05:46:15.113Z,99836.84
2023-05-19T05:48:42.707Z,99840.34
2023-05-19T05:51:09.722Z,99851.78
2023-05-19T05:53:41.908Z,99846.50
2023-05-19T05:56:09.652Z,99848.44
2023-05-19T05:58:37.668Z,99839.94
2023-05-19T06:01:04.856Z,99842.81
2023-05-19T06:03:31.967Z,99849.13
2023-05-19T06:05:58.606Z,99846.66
2023-05-19T06:08:25.215Z,99840.72
2023-05-19T06:10:51.725Z,99848.63
2023-05-19T06:13:22.537Z,99859.03
2023-05-19T06:15:49.119Z,99846.81
2023-05-19T06:18:15.780Z,99854.94
2023-05-19T06:20:42.292Z,99853.25
2023-05-19T06:23:08.939Z,99862.16
2023-05-19T06:25:35.693Z,99850.75
2023-05-19T06:28:03.565Z,99850.06
2023-05-19T06:30:30.216Z,99856.41
2023-05-19T06:32:56.850Z,99855.72
2023-05-19T06:35:23.447Z,99857.56
2023-05-19T06:37:50.049Z,99854.91
2023-05-19T06:40:16.642Z,99854.03
2023-05-19T06:42:43.175Z,99846.91
2023-05-19T06:45:10.260Z,99849.44
2023-05-19T06:47:36.864Z,99849.53
2023-05-19T06:50:03.484Z,99847.91
2023-05-19T06:52:30.008Z,99852.44
2023-05-19T06:54:56.754Z,99848.03
2023-05-19T06:57:23.768Z,99849.03
2023-05-19T06:59:50.457Z,99847.28
2023-05-19T07:02:17.180Z,99851.72
2023-05-19T07:04:47.366Z,99849.84
2023-05-19T07:07:13.926Z,99849.91
2023-05-19T07:09:40.689Z,99850.00
2023-05-19T07:12:07.522Z,99850.03
2023-05-19T07:14:34.076Z,99844.88
2023-05-19T07:17:00.699Z,99847.53
2023-05-19T07:19:27.300Z,99846.66
2023-05-19T07:21:54.947Z,99840.59
2023-05-19T07:24:22.213Z,99834.41
2023-05-19T07:26:48.969Z,99837.16
2023-05-19T07:29:15.637Z,99841.59
2023-05-19T07:31:42.227Z,99836.28
2023-05-19T07:34:09.024Z,99834.63
2023-05-19T07:36:35.987Z,99839.19
2023-05-19T07:39:02.619Z,99840.19
2023-05-19T07:41:29.199Z,99834.13
2023-05-19T07:43:55.961Z,99837.81
2023-05-19T07:46:22.622Z,99842.38
2023-05-19T07:48:49.461Z,99844.22
2023-05-19T07:51:16.194Z,99846.00
2023-05-19T07:53:42.773Z,99849.69
2023-05-19T07:56:11.850Z,99835.59
2023-05-19T07:58:38.514Z,99828.56
2023-05-19T08:01:05.227Z,99818.91
2023-05-19T08:03:32.058Z,99831.31
2023-05-19T08:05:58.766Z,99821.59
2023-05-19T08:08:25.584Z,99826.91
2023-05-19T08:10:52.210Z,99825.16
2023-05-19T08:13:18.713Z,99824.28
2023-05-19T08:15:45.362Z,99827.84
2023-05-19T08:18:11.932Z,99823.38
2023-05-19T08:20:38.621Z,99822.50
2023-05-19T08:23:05.376Z,99821.56
2023-05-19T08:25:32.156Z,99830.38
2023-05-19T08:27:58.649Z,99825.88
2023-05-19T08:30:25.245Z,99809.75
2023-05-19T08:32:51.892Z,99811.44
2023-05-19T08:35:21.520Z,99812.19
2023-05-19T08:37:48.020Z,99811.34
2023-05-19T08:40:17.502Z,99818.78
2023-05-19T08:42:45.583Z,99809.75
2023-05-19T08:45:15.013Z,99801.66
2023-05-19T08:47:42.483Z,99801.59
2023-05-19T08:50:11.817Z,99805.81
2023-05-19T08:52:50.264Z,99799.56
2023-05-19T08:55:53.348Z,99795.53
2023-05-19T08:58:23.219Z,99796.41
2023-05-19T09:00:51.137Z,99798.19
2023-05-19T09:05:49.633Z,99794.28
2023-05-19T09:08:16.602Z,99797.13
2023-05-19T09:10:43.281Z,99792.84
2023-05-19T09:13:09.854Z,99788.03
2023-05-19T09:15:39.137Z,99782.34
2023-05-19T09:18:08.383Z,99782.63
2023-05-19T09:20:45.089Z,99777.06
2023-05-19T09:23:16.363Z,99777.63
2023-05-19T09:25:50.393Z,99771.69
2023-05-19T09:28:29.402Z,99786.00
2023-05-19T09:31:06.242Z,99786.28
2023-05-19T09:33:34.909Z,99783.38
2023-05-19T09:36:01.942Z,99774.34
2023-05-19T09:38:31.517Z,99774.59
2023-05-19T09:40:59.774Z,99771.97
2023-05-19T09:43:31.812Z,99764.94
2023-05-19T09:46:13.612Z,99767.19
2023-05-19T09:48:41.080Z,99777.53
2023-05-19T09:51:10.715Z,99764.91
2023-05-19T09:53:38.994Z,99772.06
2023-05-19T09:56:08.624Z,99759.25
2023-05-19T09:58:36.371Z,99766.66
2023-05-19T10:01:07.559Z,99763.00
2023-05-19T10:03:34.616Z,99751.41
2023-05-19T10:06:02.063Z,99756.34
2023-05-19T10:08:32.261Z,99750.81
2023-05-19T10:11:00.081Z,99754.06
2023-05-19T10:13:28.200Z,99746.84
2023-05-19T10:15:59.239Z,99745.94
2023-05-19T10:18:27.817Z,99752.69
2023-05-19T10:20:54.959Z,99751.25
2023-05-19T10:23:22.382Z,99750.00
2023-05-19T10:25:52.001Z,99747.16
2023-05-19T10:28:25.887Z,99737.38
2023-05-19T10:30:56.877Z,99745.31
2023-05-19T10:33:47.375Z,99745.41
2023-05-19T10:36:35.390Z,99736.41
2023-05-19T10:39:07.794Z,99735.53
2023-05-19T10:41:47.048Z,99735.53
2023-05-19T10:44:30.652Z,99732.63
2023-05-19T10:46:57.478Z,99731.75
2023-05-19T10:49:24.292Z,99739.28
2023-05-19T10:51:52.534Z,99735.09
2023-05-19T10:54:40.710Z,99729.00
2023-05-19T10:57:08.340Z,99729.94
2023-05-19T10:59:40.045Z,99735.53
2023-05-19T11:02:10.122Z,99726.72
2023-05-19T11:04:54.117Z,99722.31
2023-05-19T11:07:22.444Z,99731.19
2023-05-19T11:09:53.478Z,99729.25
2023-05-19T11:12:25.050Z,99718.34
2023-05-19T11:14:55.089Z,99726.00
2023-05-19T11:17:23.769Z,99731.44
2023-05-19T11:19:58.663Z,99726.38
2023-05-19T11:22:26.938Z,99725.78
2023-05-19T11:24:59.779Z,99715.34
2023-05-19T11:27:31.395Z,99716.47
2023-05-19T11:30:00.482Z,99721.41
2023-05-19T11:32:29.288Z,99715.34
2023-05-19T11:34:57.631Z,99713.47
2023-05-19T11:37:24.353Z,99712.56
2023-05-19T11:39:52.276Z,99713.56
2023-05-19T11:42:19.176Z,99699.25
2023-05-19T11:44:46.410Z,99697.25
2023-05-19T11:47:14.326Z,99699.56
2023-05-19T11:49:45.908Z,99688.44
2023-05-19T11:52:12.930Z,99696.84
2023-05-19T11:54:41.827Z,99694.69
2023-05-19T11:57:10.633Z,99700.69
2023-05-19T11:59:39.235Z,99703.69
2023-05-19T12:02:19.201Z,99706.47
2023-05-19T12:04:46.967Z,99709.16
2023-05-19T12:07:17.653Z,99698.59
2023-05-19T12:09:46.020Z,99698.47
2023-05-19T12:12:22.538Z,99696.50
2023-05-19T12:14:51.120Z,99692.38
2023-05-19T12:17:25.531Z,99693.44
2023-05-19T12:19:52.460Z,99685.56
2023-05-19T12:22:19.277Z,99692.72
2023-05-19T12:24:47.198Z,99690.94
2023-05-19T12:27:19.596Z,99679.25
2023-05-19T12:29:57.308Z,99678.75
2023-05-19T12:32:25.384Z,99676.63
2023-05-19T12:34:53.005Z,99676.41
2023-05-19T12:37:19.793Z,99671.13
2023-05-19T12:39:48.320Z,99677.75
2023-05-19T12:42:16.191Z,99675.63
2023-05-19T12:44:46.509Z,99673.81
2023-05-19T12:47:14.859Z,99675.50
2023-05-19T12:50:01.534Z,99676.41
2023-05-19T12:52:29.504Z,99675.56
2023-05-19T12:55:05.268Z,99668.84
2023-05-19T12:57:38.666Z,99671.19
2023-05-19T13:00:10.658Z,99679.56
2023-05-19T13:03:08.519Z,99679.78
2023-05-19T13:05:39.620Z,99668.44
2023-05-19T13:08:08.924Z,99668.50
2023-05-19T13:10:36.763Z,99672.13
2023-05-19T13:13:04.235Z,99671.31
2023-05-19T13:15:36.465Z,99671.38
2023-05-19T13:18:06.189Z,99667.81
2023-05-19T13:20:33.532Z,99673.97
2023-05-19T13:23:00.409Z,99664.16
2023-05-19T13:25:27.505Z,99669.44
2023-05-19T13:27:54.650Z,99666.56
2023-05-19T13:30:21.961Z,99670.03
2023-05-19T13:32:48.622Z,99659.03
2023-05-19T13:35:18.403Z,99656.28
2023-05-19T13:37:45.062Z,99660.84
2023-05-19T13:40:12.177Z,99657.50
2023-05-19T13:42:38.893Z,99651.38
2023-05-19T13:45:06.061Z,99655.09
2023-05-19T13:47:32.718Z,99656.97
2023-05-19T13:49:59.362Z,99656.97
2023-05-19T13:52:28.090Z,99655.16
2023-05-19T13:54:56.626Z,99656.72
2023-05-19T13:57:23.784Z,99643.03
2023-05-19T14:00:10.817Z,99644.22
2023-05-19T14:02:38.201Z,99647.72
2023-05-19T14:05:05.890Z,99640.81
2023-05-19T14:07:34.660Z,99633.97
2023-05-19T14:10:02.584Z,99639.47
2023-05-19T14:12:37.983Z,99639.56
2023-05-19T14:15:14.202Z,99639.50
2023-05-19T14:17:40.821Z,99640.28
2023-05-19T14:20:08.510Z,99638.25
2023-05-19T14:22:35.183Z,99632.81
2023-05-19T14:25:02.503Z,99634.41
2023-05-19T14:27:29.006Z,99630.66
2023-05-19T14:29:55.642Z,99631.34
2023-05-19T14:32:22.359Z,99634.81
2023-05-19T14:34:52.823Z,99633.88
2023-05-19T14:37:20.817Z,99635.53
2023-05-19T14:39:47.375Z,99631.97
2023-05-19T14:42:16.861Z,99639.19
2023-05-19T14:44:43.422Z,99630.34
2023-05-19T14:47:11.195Z,99627.84
2023-05-19T14:49:39.233Z,99625.34
2023-05-19T14:52:06.061Z,99618.19
2023-05-19T14:54:32.656Z,99616.38
2023-05-19T14:56:59.228Z,99623.53
2023-05-19T14:59:26.215Z,99624.56
2023-05-19T15:01:52.729Z,99616.41
2023-05-19T15:04:19.302Z,99618.94
2023-05-19T15:06:48.235Z,99613.41
2023-05-19T15:09:18.989Z,99609.22
2023-05-19T15:11:45.663Z,99612.13
2023-05-19T15:14:12.201Z,99614.22
2023-05-19T15:16:38.728Z,99614.41
2023-05-19T15:19:05.365Z,99622.50
2023-05-19T15:21:31.932Z,99618.09
2023-05-19T15:23:58.444Z,99620.78
2023-05-19T15:26:25.183Z,99617.25
2023-05-19T15:28:52.726Z,99616.34
2023-05-19T15:31:19.319Z,99616.28
2023-05-19T15:33:46.082Z,99618.00
2023-05-19T15:36:16.393Z,99608.94
2023-05-19T15:38:42.928Z,99615.94
2023-05-19T15:41:10.200Z,99614.97
2023-05-19T15:43:36.951Z,99615.88
2023-05-19T15:46:04.995Z,99607.78
2023-05-19T15:48:32.349Z,99611.38
2023-05-19T15:50:59.794Z,99602.50
2023-05-19T15:53:26.459Z,99597.28
2023-05-19T15:55:52.946Z,99603.59
2023-05-19T15:58:19.543Z,99611.75
2023-05-19T16:00:48.196Z,99605.69
2023-05-19T16:03:14.882Z,99604.84
2023-05-19T16:05:41.467Z,99607.59
2023-05-19T16:08:08.891Z,99602.44
2023-05-19T16:10:38.483Z,99595.38
2023-05-19T16:13:05.038Z,99599.03
2023-05-19T16:15:31.541Z,99596.41
2023-05-19T16:17:58.102Z,99591.13
2023-05-19T16:20:27.854Z,99592.88
2023-05-19T16:22:55.437Z,99591.06
2023-05-19T16:25:22.344Z,99591.00
2023-05-19T16:27:48.967Z,99594.47
2023-05-19T16:30:16.486Z,99592.66
2023-05-19T16:32:43.179Z,99583.75
2023-05-19T16:35:10.033Z,99584.66
2023-05-19T16:37:36.574Z,99579.31
2023-05-19T16:40:03.506Z,99581.97
2023-05-19T16:42:30.081Z,99580.19
2023-05-19T16:44:56.572Z,99587.34
2023-05-19T16:47:23.149Z,99584.75
2023-05-19T16:49:49.689Z,99585.63
2023-05-19T16:52:16.215Z,99575.88
2023-05-19T16:54:42.739Z,99573.28
2023-05-19T16:57:09.811Z,99571.47
2023-05-19T16:59:36.345Z,99574.19
2023-05-19T17:02:03.409Z,99567.94
2023-05-19T17:04:30.891Z,99567.94
2023-05-19T17:06:57.627Z,99570.63
2023-05-19T17:09:26.205Z,99560.88
2023-05-19T17:11:53.557Z,99562.66
2023-05-19T17:14:20.976Z,99565.38
2023-05-19T17:16:47.734Z,99564.50
2023-05-19T17:19:16.175Z,99564.50
2023-05-19T17:21:42.734Z,99559.25
2023-05-19T17:24:09.338Z,99570.00
2023-05-19T17:26:35.958Z,99570.91
2023-05-19T17:29:02.509Z,99570.94
2023-05-19T17:31:29.107Z,99571.88
2023-05-19T17:33:58.096Z,99569.31
2023-05-19T17:36:24.565Z,99579.13
2023-05-19T17:38:51.200Z,99571.19
2023-05-19T17:41:17.912Z,99573.06
2023-05-19T17:43:44.438Z,99573.13
2023-05-19T17:46:12.055Z,99566.91
2023-05-19T17:48:39.727Z,99570.50
2023-05-19T17:51:09.153Z,99570.56
2023-05-19T17:53:36.554Z,99573.28
2023-05-19T17:56:06.543Z,99574.19
2023-05-19T17:58:33.446Z,99571.53
2023-05-19T18:01:00.372Z,99578.69
2023-05-19T18:03:27.188Z,99577.84
2023-05-19T18:05:58.633Z,99576.97
2023-05-19T18:08:25.952Z,99571.69
2023-05-19T18:10:54.109Z,99569.97
2023-05-19T18:13:23.551Z,99570.91
2023-05-19T18:15:50.555Z,99576.28
2023-05-19T18:18:17.136Z,99569.16
2023-05-19T18:20:47.560Z,99569.22
2023-05-19T18:23:14.097Z,99569.25
2023-05-19T18:25:40.643Z,99570.16
2023-05-19T18:28:07.983Z,99569.31
2023-05-19T18:30:34.905Z,99567.53
2023-05-19T18:33:03.673Z,99566.63
2023-05-19T18:35:30.479Z,99564.81
2023-05-19T18:37:57.368Z,99566.66
2023-05-19T18:40:24.519Z,99571.06
2023-05-19T18:42:51.010Z,99570.22
2023-05-19T18:45:17.491Z,99574.66
2023-05-19T18:47:46.815Z,99578.25
2023-05-19T18:50:14.279Z,99582.72
2023-05-19T18:52:40.909Z,99578.34
2023-05-19T18:55:07.770Z,99576.59
2023-05-19T18:57:34.319Z,99576.59
2023-05-19T19:00:00.837Z,99577.50
2023-05-19T19:02:27.397Z,99583.75
2023-05-19T19:04:53.992Z,99586.41
2023-05-19T19:07:20.642Z,99581.13
2023-05-19T19:09:47.144Z,99589.13
2023-05-19T19:12:13.737Z,99586.50
2023-05-19T19:14:40.304Z,99590.91
2023-05-19T19:17:06.863Z,99597.19
2023-05-19T19:19:33.461Z,99595.44
2023-05-19T19:22:00.136Z,99598.09
2023-05-19T19:24:28.412Z,99593.72
2023-05-19T19:26:54.931Z,99599.91
2023-05-19T19:29:21.923Z,99598.13
2023-05-19T19:31:48.740Z,99607.88
2023-05-19T19:34:15.638Z,99607.03
2023-05-19T19:36:42.168Z,99606.13
2023-05-19T19:39:08.704Z,99606.13
2023-05-19T19:41:35.301Z,99607.94
2023-05-19T19:44:01.842Z,99611.47
2023-05-19T19:46:31.179Z,99607.03
2023-05-19T19:49:00.613Z,99615.94
2023-05-19T19:51:27.832Z,99610.59
2023-05-19T19:53:54.635Z,99615.94
2023-05-19T19:56:23.593Z,99617.69
2023-05-19T19:58:51.039Z,99615.94
2023-05-19T20:01:20.285Z,99620.38
2023-05-19T20:03:47.337Z,99624.78
2023-05-19T20:06:14.198Z,99628.31
2023-05-19T20:08:40.773Z,99622.13
2023-05-19T20:11:07.307Z,99623.88
2023-05-19T20:13:34.011Z,99635.38
2023-05-19T20:16:03.365Z,99637.09
2023-05-19T20:18:30.172Z,99644.19
2023-05-19T20:20:56.995Z,99646.84
2023-05-19T20:23:23.557Z,99642.44
2023-05-19T20:26:06.701Z,99640.69
2023-05-19T20:28:37.291Z,99640.66
2023-05-19T20:31:03.909Z,99634.44
2023-05-19T20:33:30.469Z,99637.97
2023-05-19T20:35:57.040Z,99635.31
2023-05-19T20:38:23.547Z,99634.41
2023-05-19T20:40:50.149Z,99643.28
2023-05-19T20:43:16.717Z,99636.22
2023-05-19T20:45:44.257Z,99628.19
2023-05-19T20:48:11.314Z,99640.59
2023-05-19T20:50:39.366Z,99641.47
2023-05-19T20:53:07.301Z,99637.91
2023-05-19T20:55:36.264Z,99646.75
2023-05-19T20:58:06.475Z,99647.59
2023-05-19T21:00:33.581Z,99642.28
2023-05-19T21:03:00.748Z,99647.59
2023-05-19T21:05:27.338Z,99648.47
2023-05-19T21:07:53.984Z,99645.81
2023-05-19T21:10:23.584Z,99651.03
2023-05-19T21:13:00.843Z,99657.22
2023-05-19T21:15:27.460Z,99653.69
2023-05-19T21:17:55.092Z,99655.50
2023-05-19T21:20:21.775Z,99660.81
2023-05-19T21:22:48.300Z,99661.69
2023-05-19T21:25:17.004Z,99670.50
2023-05-19T21:27:48.679Z,99663.47
2023-05-19T21:30:24.456Z,99662.59
2023-05-19T21:32:51.347Z,99669.72
2023-05-19T21:35:17.933Z,99656.44
2023-05-19T21:37:44.494Z,99667.00
2023-05-19T21:40:11.664Z,99658.13
2023-05-19T21:42:38.217Z,99653.69
2023-05-19T21:45:05.225Z,99659.00
2023-05-19T21:47:33.723Z,99664.34
2023-05-19T21:50:03.120Z,99671.44
2023-05-19T21:52:30.271Z,99674.91
2023-05-19T21:55:00.035Z,99667.78
2023-05-19T21:57:26.654Z,99668.66
2023-05-19T21:59:53.193Z,99666.81
2023-05-19T22:02:23.143Z,99672.19
2023-05-19T22:04:55.771Z,99674.84
2023-05-19T22:07:26.783Z,99667.75
2023-05-19T22:09:53.695Z,99678.25
2023-05-19T22:12:20.326Z,99680.00
2023-05-19T22:14:46.805Z,99683.53
2023-05-19T22:17:13.326Z,99685.22
2023-05-19T22:19:39.810Z,99680.72
2023-05-19T22:22:13.777Z,99676.34
2023-05-19T22:24:41.223Z,99671.16
2023-05-19T22:27:08.545Z,99673.00
2023-05-19T22:29:38.665Z,99670.38
2023-05-19T22:32:12.067Z,99664.22
2023-05-19T22:34:41.955Z,99665.13
2023-05-19T22:37:08.531Z,99667.72
2023-05-19T22:39:35.193Z,99658.78
2023-05-19T22:42:02.522Z,99664.03
2023-05-19T22:44:29.052Z,99660.56
2023-05-19T22:47:00.534Z,99665.88
2023-05-19T22:49:29.837Z,99672.06
2023-05-19T22:51:56.336Z,99672.91
2023-05-19T22:54:25.375Z,99671.84
2023-05-19T22:56:51.870Z,99662.09
2023-05-19T22:59:18.504Z,99664.69
2023-05-19T23:01:51.221Z,99657.69
2023-05-19T23:04:17.921Z,99666.53
2023-05-19T23:06:49.627Z,99662.09
2023-05-19T23:09:17.866Z,99670.97
2023-05-19T23:11:45.178Z,99669.34
2023-05-19T23:14:11.725Z,99671.09
2023-05-19T23:16:41.310Z,99667.63
2023-05-19T23:19:11.202Z,99668.50
2023-05-19T23:21:37.760Z,99668.50
2023-05-19T23:24:05.665Z,99671.06
2023-05-19T23:26:37.748Z,99674.66
2023-05-19T23:29:11.251Z,99673.84
2023-05-19T23:31:42.141Z,99660.63
2023-05-19T23:34:12.066Z,99665.03
2023-05-19T23:36:38.571Z,99675.59
2023-05-19T23:39:05.087Z,99669.41
2023-05-19T23:41:31.743Z,99674.69
2023-05-19T23:43:58.382Z,99674.69
2023-05-19T23:46:27.600Z,99675.56
2023-05-19T23:48:57.490Z,99681.72
2023-05-19T23:51:24.152Z,99691.44
2023-05-19T23:53:50.873Z,99679.88
2023-05-19T23:56:17.402Z,99680.88
2023-05-19T23:58:46.561Z,99675.59
